createdAt,value
2022-12-29T00:02:21.057Z,42.50
2022-12-29T00:04:50.026Z,42.00
2022-12-29T00:07:17.791Z,41.63
2022-12-29T00:09:45.191Z,45.53
2022-12-29T00:12:12.187Z,47.55
2022-12-29T00:14:57.607Z,41.15
2022-12-29T00:17:24.776Z,40.03
2022-12-29T00:20:10.211Z,45.15
2022-12-29T00:22:55.688Z,47.55
2022-12-29T00:25:41.281Z,49.45
2022-12-29T00:28:28.972Z,48.17
2022-12-29T00:31:23.542Z,44.33
2022-12-29T00:34:09.324Z,45.35
2022-12-29T00:36:40.254Z,46.38
2022-12-29T00:39:31.668Z,47.40
2022-12-29T00:42:23.827Z,48.17
2022-12-29T00:44:50.820Z,46.90
2022-12-29T00:47:18.279Z,46.47
2022-12-29T00:49:45.630Z,44.55
2022-12-29T00:52:13.860Z,46.85
2022-12-29T00:54:42.032Z,46.83
2022-12-29T00:57:10.735Z,48.55
2022-12-29T00:59:39.780Z,45.60
2022-12-29T01:02:07.795Z,47.40
2022-12-29T01:04:35.725Z,46.17
2022-12-29T01:07:02.773Z,47.35
2022-12-29T01:09:48.243Z,47.55
2022-12-29T01:12:15.284Z,47.45
2022-12-29T01:14:42.352Z,49.35
2022-12-29T01:17:09.347Z,46.92
2022-12-29T01:19:36.468Z,46.50
2022-12-29T01:22:03.547Z,47.65
2022-12-29T01:24:30.637Z,49.38
2022-12-29T01:26:57.682Z,47.92
2022-12-29T01:29:24.799Z,45.95
2022-12-29T01:31:52.424Z,48.20
2022-12-29T01:34:19.470Z,45.85
2022-12-29T01:36:46.504Z,47.90
2022-12-29T01:39:14.319Z,46.15
2022-12-29T01:41:42.151Z,45.58
2022-12-29T01:44:48.211Z,46.10
2022-12-29T01:47:33.307Z,46.28
2022-12-29T01:50:06.760Z,46.67
2022-12-29T01:52:36.234Z,46.58
2022-12-29T01:55:05.345Z,46.00
2022-12-29T01:57:37.087Z,44.92
2022-12-29T02:00:11.243Z,45.90
2022-12-29T02:02:45.192Z,45.85
2022-12-29T02:05:34.452Z,46.65
2022-12-29T02:08:03.065Z,45.88
2022-12-29T02:10:33.433Z,46.15
2022-12-29T02:13:00.832Z,43.72
2022-12-29T02:16:08.889Z,47.15
2022-12-29T02:18:52.806Z,45.95
2022-12-29T02:21:28.821Z,47.13
2022-12-29T02:24:17.289Z,47.30
2022-12-29T02:26:54.725Z,45.20
2022-12-29T02:29:53.525Z,46.30
2022-12-29T02:32:43.744Z,46.33
2022-12-29T02:35:28.885Z,45.50
2022-12-29T02:38:14.435Z,44.10
2022-12-29T02:40:55.236Z,44.47
2022-12-29T02:43:36.518Z,45.95
2022-12-29T02:46:20.740Z,46.00
2022-12-29T02:48:55.842Z,45.50
2022-12-29T02:51:40.157Z,43.63
2022-12-29T02:54:26.503Z,45.80
2022-12-29T02:56:53.534Z,42.95
2022-12-29T02:59:21.410Z,46.60
2022-12-29T03:02:17.981Z,45.20
2022-12-29T03:04:48.035Z,44.92
2022-12-29T03:07:25.420Z,43.65
2022-12-29T03:10:06.038Z,43.88
2022-12-29T03:13:03.149Z,43.95
2022-12-29T03:15:56.777Z,43.53
2022-12-29T03:18:35.403Z,44.45
2022-12-29T03:21:10.863Z,42.67
2022-12-29T03:23:41.511Z,43.63
2022-12-29T03:26:12.423Z,42.97
2022-12-29T03:28:54.117Z,42.95
2022-12-29T03:31:26.107Z,42.83
2022-12-29T03:33:56.521Z,43.92
2022-12-29T03:36:39.958Z,44.70
2022-12-29T03:39:13.279Z,44.35
2022-12-29T03:41:44.131Z,43.08
2022-12-29T03:44:12.403Z,43.60
2022-12-29T03:46:40.167Z,44.67
2022-12-29T03:49:08.187Z,41.42
2022-12-29T03:51:35.364Z,41.75
2022-12-29T03:54:03.621Z,42.65
2022-12-29T03:56:30.804Z,41.50
2022-12-29T03:58:58.994Z,42.60
2022-12-29T04:01:31.992Z,43.33
2022-12-29T04:03:59.161Z,42.10
2022-12-29T04:06:26.579Z,41.17
2022-12-29T04:09:00.068Z,44.28
2022-12-29T04:11:32.826Z,42.65
2022-12-29T04:14:00.835Z,42.20
2022-12-29T04:16:29.843Z,41.13
2022-12-29T04:18:57.096Z,41.65
2022-12-29T04:21:24.114Z,42.03
2022-12-29T04:23:51.652Z,44.10
2022-12-29T04:26:18.699Z,42.13
2022-12-29T04:29:05.953Z,42.10
2022-12-29T04:31:44.829Z,42.25
2022-12-29T04:34:12.259Z,43.45
2022-12-29T04:36:40.695Z,43.17
2022-12-29T04:39:08.876Z,40.50
2022-12-29T04:41:37.603Z,41.50
2022-12-29T04:44:06.859Z,41.20
2022-12-29T04:46:34.443Z,41.97
2022-12-29T04:49:19.222Z,42.83
2022-12-29T04:51:56.429Z,40.95
2022-12-29T04:54:24.324Z,40.85
2022-12-29T04:57:01.539Z,41.42
2022-12-29T04:59:28.695Z,42.10
2022-12-29T05:01:59.241Z,40.97
2022-12-29T05:04:26.385Z,42.22
2022-12-29T05:06:53.723Z,41.88
2022-12-29T05:09:20.904Z,40.17
2022-12-29T05:11:47.873Z,43.13
2022-12-29T05:14:14.968Z,41.08
2022-12-29T05:16:43.134Z,41.17
2022-12-29T05:19:10.543Z,42.10
2022-12-29T05:21:37.623Z,41.08
2022-12-29T05:24:04.955Z,42.60
2022-12-29T05:26:32.026Z,42.92
2022-12-29T05:29:09.672Z,41.05
2022-12-29T05:31:36.861Z,43.00
2022-12-29T05:34:05.473Z,42.25
2022-12-29T05:36:37.552Z,42.17
2022-12-29T05:39:06.401Z,42.83
2022-12-29T05:41:35.615Z,42.33
2022-12-29T05:44:14.753Z,42.00
2022-12-29T05:46:53.674Z,40.13
2022-12-29T05:49:32.702Z,40.78
2022-12-29T05:52:09.729Z,41.13
2022-12-29T05:54:37.202Z,43.65
2022-12-29T05:57:10.927Z,40.55
2022-12-29T05:59:39.379Z,41.53
2022-12-29T06:02:06.851Z,42.45
2022-12-29T06:04:34.492Z,40.03
2022-12-29T06:07:01.713Z,41.17
2022-12-29T06:09:37.110Z,41.72
2022-12-29T06:12:08.028Z,41.88
2022-12-29T06:14:35.139Z,42.15
2022-12-29T06:17:04.169Z,38.70
2022-12-29T06:19:31.295Z,41.65
2022-12-29T06:21:58.284Z,41.90
2022-12-29T06:24:25.385Z,40.58
2022-12-29T06:26:53.206Z,40.92
2022-12-29T06:29:21.528Z,41.17
2022-12-29T06:31:49.802Z,39.47
2022-12-29T06:34:17.041Z,39.95
2022-12-29T06:36:44.450Z,39.80
2022-12-29T06:39:11.947Z,42.38
2022-12-29T06:41:38.964Z,41.45
2022-12-29T06:44:11.993Z,41.30
2022-12-29T06:46:50.954Z,40.85
2022-12-29T06:49:18.656Z,42.95
2022-12-29T06:51:45.824Z,43.60
2022-12-29T06:54:12.884Z,39.92
2022-12-29T06:56:40.081Z,44.17
2022-12-29T06:59:07.094Z,42.53
2022-12-29T07:01:34.425Z,43.50
2022-12-29T07:04:01.593Z,43.40
2022-12-29T07:06:28.889Z,42.75
2022-12-29T07:08:56.227Z,42.85
2022-12-29T07:11:23.848Z,42.55
2022-12-29T07:13:51.301Z,44.95
2022-12-29T07:16:18.452Z,44.42
2022-12-29T07:18:45.493Z,43.28
2022-12-29T07:21:12.873Z,42.35
2022-12-29T07:23:39.928Z,42.72
2022-12-29T07:26:09.251Z,44.05
2022-12-29T07:28:37.043Z,43.45
2022-12-29T07:31:04.035Z,41.20
2022-12-29T07:33:31.585Z,44.28
2022-12-29T07:35:59.348Z,42.28
2022-12-29T07:38:26.437Z,43.67
2022-12-29T07:40:58.963Z,43.22
2022-12-29T07:43:26.293Z,44.25
2022-12-29T07:46:55.946Z,44.33
2022-12-29T07:49:02.156Z,45.17
2022-12-29T07:51:29.123Z,43.33
2022-12-29T07:53:56.169Z,45.20
2022-12-29T07:56:23.034Z,44.28
2022-12-29T07:58:50.658Z,43.45
2022-12-29T08:01:17.751Z,42.85
2022-12-29T08:03:45.132Z,45.67
2022-12-29T08:06:12.898Z,44.45
2022-12-29T08:08:39.934Z,45.30
2022-12-29T08:11:06.929Z,46.20
2022-12-29T08:13:33.949Z,45.72
2022-12-29T08:16:01.199Z,43.90
2022-12-29T08:18:28.354Z,45.30
2022-12-29T08:20:55.876Z,44.03
2022-12-29T08:23:22.971Z,44.30
2022-12-29T08:25:58.933Z,44.30
2022-12-29T08:28:26.527Z,44.72
2022-12-29T08:30:53.974Z,45.03
2022-12-29T08:33:21.087Z,45.33
2022-12-29T08:35:48.129Z,44.30
2022-12-29T08:38:15.232Z,46.15
2022-12-29T08:40:42.451Z,45.53
2022-12-29T08:43:09.445Z,46.22
2022-12-29T08:45:36.651Z,47.78
2022-12-29T08:48:03.719Z,46.22
2022-12-29T08:50:30.842Z,46.65
2022-12-29T08:52:57.910Z,46.20
2022-12-29T08:55:25.024Z,47.72
2022-12-29T08:57:53.195Z,45.45
2022-12-29T09:00:21.748Z,46.30
2022-12-29T09:02:48.907Z,47.22
2022-12-29T09:05:16.715Z,46.10
2022-12-29T09:07:43.933Z,44.60
2022-12-29T09:10:11.047Z,42.55
2022-12-29T09:12:38.119Z,41.83
2022-12-29T09:15:06.453Z,44.28
2022-12-29T09:17:45.505Z,43.63
2022-12-29T09:20:17.970Z,45.15
2022-12-29T09:22:45.687Z,47.00
2022-12-29T09:25:13.261Z,48.33
2022-12-29T09:27:40.547Z,47.95
2022-12-29T09:30:10.350Z,47.30
2022-12-29T09:32:43.640Z,48.22
2022-12-29T09:35:12.291Z,47.78
2022-12-29T09:37:39.392Z,49.15
2022-12-29T09:40:08.034Z,47.08
2022-12-29T09:42:56.431Z,46.55
2022-12-29T09:45:34.137Z,48.05
2022-12-29T09:48:05.360Z,47.70
2022-12-29T09:50:38.441Z,49.13
2022-12-29T09:53:29.860Z,47.65
2022-12-29T09:56:00.559Z,46.75
2022-12-29T09:58:41.880Z,47.45
2022-12-29T10:01:17.457Z,47.25
2022-12-29T10:03:57.561Z,49.65
2022-12-29T10:06:50.170Z,48.15
2022-12-29T10:09:46.025Z,50.17
2022-12-29T10:12:34.317Z,48.08
2022-12-29T10:15:07.502Z,47.20
2022-12-29T10:18:12.001Z,49.25
2022-12-29T10:20:48.152Z,47.90
2022-12-29T10:23:18.317Z,47.80
2022-12-29T10:25:45.847Z,47.80
2022-12-29T10:28:38.392Z,47.88
2022-12-29T10:31:12.306Z,46.97
2022-12-29T10:33:42.762Z,47.65
2022-12-29T10:36:22.820Z,46.13
2022-12-29T10:39:01.961Z,46.22
2022-12-29T10:41:47.160Z,47.53
2022-12-29T10:44:17.191Z,44.92
2022-12-29T10:46:45.689Z,47.08
2022-12-29T10:49:21.508Z,46.90
2022-12-29T10:51:52.981Z,45.97
2022-12-29T10:54:38.171Z,46.72
2022-12-29T10:57:12.411Z,46.53
2022-12-29T10:59:40.488Z,47.53
2022-12-29T11:02:10.365Z,44.35
2022-12-29T11:05:13.197Z,44.60
2022-12-29T11:07:40.856Z,45.83
2022-12-29T11:10:35.929Z,48.38
2022-12-29T11:13:11.331Z,47.92
2022-12-29T11:15:46.766Z,46.08
2022-12-29T11:18:21.789Z,47.55
2022-12-29T11:20:49.688Z,48.33
2022-12-29T11:23:31.355Z,50.08
2022-12-29T11:26:17.006Z,46.97
2022-12-29T11:28:47.231Z,48.67
2022-12-29T11:31:18.856Z,47.15
2022-12-29T11:33:45.965Z,44.50
2022-12-29T11:36:22.348Z,48.10
2022-12-29T11:38:51.988Z,47.90
2022-12-29T11:41:31.210Z,47.78
2022-12-29T11:44:01.202Z,50.15
2022-12-29T11:46:35.438Z,47.78
2022-12-29T11:49:04.196Z,48.58
2022-12-29T11:51:44.146Z,47.90
2022-12-29T11:54:36.791Z,48.13
2022-12-29T11:57:18.354Z,49.08
2022-12-29T11:59:51.816Z,48.38
2022-12-29T12:02:21.580Z,47.60
2022-12-29T12:04:52.624Z,47.95
2022-12-29T12:07:30.792Z,50.00
2022-12-29T12:10:07.857Z,49.45
2022-12-29T12:12:48.111Z,47.15
2022-12-29T12:15:23.074Z,48.95
2022-12-29T12:18:19.598Z,47.63
2022-12-29T12:20:52.888Z,47.95
2022-12-29T12:23:45.588Z,48.42
2022-12-29T12:26:19.813Z,46.65
2022-12-29T12:28:53.596Z,46.20
2022-12-29T12:31:55.856Z,45.42
2022-12-29T12:34:36.725Z,45.15
2022-12-29T12:37:31.971Z,44.38
2022-12-29T12:40:36.652Z,45.53
2022-12-29T12:43:12.327Z,45.83
2022-12-29T12:45:58.719Z,48.50
2022-12-29T12:48:44.133Z,47.58
2022-12-29T12:51:32.211Z,49.80
2022-12-29T12:54:07.229Z,46.33
2022-12-29T12:56:52.297Z,47.03
2022-12-29T12:59:37.687Z,48.60
2022-12-29T13:02:52.821Z,46.60
2022-12-29T13:05:44.830Z,46.15
2022-12-29T13:08:11.928Z,45.88
2022-12-29T13:10:47.045Z,47.70
2022-12-29T13:13:43.980Z,46.97
2022-12-29T13:16:49.642Z,46.50
2022-12-29T13:19:37.751Z,47.33
2022-12-29T13:22:30.017Z,49.03
2022-12-29T13:25:17.212Z,45.53
2022-12-29T13:27:57.407Z,47.15
2022-12-29T13:30:31.417Z,47.35
2022-12-29T13:33:08.388Z,46.70
2022-12-29T13:35:47.594Z,45.90
2022-12-29T13:38:22.339Z,48.13
2022-12-29T13:40:56.783Z,46.53
2022-12-29T13:43:24.679Z,47.45
2022-12-29T13:46:05.927Z,47.00
2022-12-29T13:48:41.679Z,48.17
2022-12-29T13:53:55.134Z,46.55
2022-12-29T13:56:34.647Z,45.85
2022-12-29T13:59:10.310Z,47.20
2022-12-29T14:01:55.899Z,47.95
2022-12-29T14:04:29.096Z,46.58
2022-12-29T14:07:13.121Z,47.63
2022-12-29T14:09:52.470Z,45.92
2022-12-29T14:12:44.727Z,46.40
2022-12-29T14:15:11.699Z,45.35
2022-12-29T14:17:45.327Z,46.88
2022-12-29T14:20:22.674Z,46.92
2022-12-29T14:23:10.455Z,46.13
2022-12-29T14:25:59.775Z,49.40
2022-12-29T14:28:29.949Z,63.65
2022-12-29T14:30:59.628Z,47.10
2022-12-29T14:33:30.710Z,45.40
2022-12-29T14:36:18.468Z,46.30
2022-12-29T14:38:47.041Z,47.75
2022-12-29T14:41:25.341Z,48.20
2022-12-29T14:43:59.233Z,45.10
2022-12-29T14:46:44.347Z,46.55
2022-12-29T14:49:18.910Z,46.53
2022-12-29T14:51:46.568Z,46.60
2022-12-29T14:54:42.646Z,43.28
2022-12-29T14:57:18.838Z,45.42
2022-12-29T14:59:47.165Z,44.47
2022-12-29T15:02:20.070Z,45.08
2022-12-29T15:04:48.586Z,43.15
2022-12-29T15:07:18.461Z,41.88
2022-12-29T15:10:05.642Z,43.28
2022-12-29T15:12:40.657Z,44.45
2022-12-29T15:15:22.067Z,41.92
2022-12-29T15:17:49.188Z,43.28
2022-12-29T15:20:23.486Z,44.17
2022-12-29T15:22:55.198Z,42.67
2022-12-29T15:25:22.708Z,41.50
2022-12-29T15:27:56.327Z,44.38
2022-12-29T15:30:23.541Z,43.30
2022-12-29T15:32:51.159Z,43.75
2022-12-29T15:35:29.758Z,43.35
2022-12-29T15:37:57.748Z,46.67
2022-12-29T15:40:30.936Z,44.58
2022-12-29T15:43:02.574Z,41.55
2022-12-29T15:45:35.157Z,42.58
2022-12-29T15:48:03.554Z,43.25
2022-12-29T15:50:32.868Z,43.50
2022-12-29T15:53:01.472Z,42.10
2022-12-29T15:55:36.761Z,42.00
2022-12-29T15:58:06.384Z,42.13
2022-12-29T16:00:37.379Z,42.20
2022-12-29T16:03:07.443Z,39.45
2022-12-29T16:05:36.560Z,41.10
2022-12-29T16:08:21.475Z,38.70
2022-12-29T16:10:48.538Z,41.40
2022-12-29T16:13:26.295Z,40.70
2022-12-29T16:16:15.184Z,40.20
2022-12-29T16:18:42.325Z,39.13
2022-12-29T16:21:20.799Z,41.25
2022-12-29T16:23:51.865Z,40.20
2022-12-29T16:26:20.825Z,43.22
2022-12-29T16:28:51.548Z,41.17
2022-12-29T16:31:33.542Z,39.88
2022-12-29T16:34:40.964Z,38.22
2022-12-29T16:37:35.226Z,42.30
2022-12-29T16:40:27.184Z,40.47
2022-12-29T16:43:02.180Z,40.88
2022-12-29T16:45:55.006Z,39.53
2022-12-29T16:48:25.978Z,40.78
2022-12-29T16:51:01.759Z,38.97
2022-12-29T16:53:33.625Z,41.83
2022-12-29T16:56:09.562Z,38.60
2022-12-29T16:58:36.956Z,42.42
2022-12-29T17:01:06.949Z,43.05
2022-12-29T17:03:41.253Z,41.42
2022-12-29T17:06:16.293Z,41.17
2022-12-29T17:08:44.841Z,39.83
2022-12-29T17:11:58.334Z,44.85
2022-12-29T17:14:53.693Z,40.67
2022-12-29T17:17:22.578Z,39.72
2022-12-29T17:19:55.524Z,41.80
2022-12-29T17:22:25.981Z,39.85
2022-12-29T17:24:58.263Z,40.75
2022-12-29T17:27:28.213Z,42.08
2022-12-29T17:29:59.728Z,40.25
2022-12-29T17:32:27.255Z,40.63
2022-12-29T17:34:54.347Z,42.40
2022-12-29T17:37:24.140Z,40.38
2022-12-29T17:39:51.615Z,39.70
2022-12-29T17:42:19.936Z,42.13
2022-12-29T17:44:47.772Z,41.45
2022-12-29T17:47:15.890Z,40.22
2022-12-29T17:49:46.336Z,43.42
2022-12-29T17:52:15.774Z,44.20
2022-12-29T17:54:50.019Z,41.38
2022-12-29T17:57:18.445Z,42.90
2022-12-29T17:59:45.414Z,40.25
2022-12-29T18:02:30.877Z,41.40
2022-12-29T18:04:59.423Z,38.83
2022-12-29T18:07:33.871Z,40.20
2022-12-29T18:10:03.885Z,42.47
2022-12-29T18:12:37.745Z,42.85
2022-12-29T18:15:05.472Z,39.28
2022-12-29T18:17:32.523Z,42.30
2022-12-29T18:19:59.511Z,39.25
2022-12-29T18:22:29.071Z,41.17
2022-12-29T18:24:56.321Z,39.25
2022-12-29T18:27:23.442Z,39.05
2022-12-29T18:29:50.622Z,39.95
2022-12-29T18:32:18.543Z,39.35
2022-12-29T18:34:45.877Z,42.00
2022-12-29T18:37:12.951Z,40.72
2022-12-29T18:39:39.914Z,40.35
2022-12-29T18:42:07.574Z,39.72
2022-12-29T18:44:35.208Z,39.20
2022-12-29T18:47:02.310Z,43.08
2022-12-29T18:49:29.360Z,39.50
2022-12-29T18:51:56.493Z,40.03
2022-12-29T18:54:32.331Z,39.97
2022-12-29T18:59:26.539Z,40.33
2022-12-29T19:01:53.716Z,39.05
2022-12-29T19:04:22.400Z,40.42
2022-12-29T19:06:49.695Z,39.78
2022-12-29T19:09:16.828Z,38.65
2022-12-29T19:11:44.055Z,38.00
2022-12-29T19:14:16.748Z,39.42
2022-12-29T19:16:43.907Z,40.17
2022-12-29T19:19:15.561Z,39.95
2022-12-29T19:21:42.990Z,39.63
2022-12-29T19:24:10.086Z,40.22
2022-12-29T19:26:39.435Z,39.67
2022-12-29T19:29:08.597Z,40.60
2022-12-29T19:31:38.140Z,41.08
2022-12-29T19:34:05.225Z,41.22
2022-12-29T19:36:32.470Z,38.70
2022-12-29T19:38:59.606Z,39.30
2022-12-29T19:41:26.577Z,41.40
2022-12-29T19:43:53.563Z,39.58
2022-12-29T19:46:20.822Z,38.55
2022-12-29T19:48:47.957Z,39.25
2022-12-29T19:51:17.229Z,41.30
2022-12-29T19:53:45.854Z,40.30
2022-12-29T19:56:13.869Z,39.95
2022-12-29T19:58:46.572Z,41.92
2022-12-29T20:01:17.825Z,41.38
2022-12-29T20:03:45.424Z,40.25
2022-12-29T20:06:12.899Z,39.75
2022-12-29T20:08:40.169Z,40.20
2022-12-29T20:11:13.017Z,40.78
2022-12-29T20:13:40.747Z,41.85
2022-12-29T20:16:11.476Z,42.85
2022-12-29T20:18:39.196Z,39.28
2022-12-29T20:21:08.889Z,42.30
2022-12-29T20:23:39.348Z,38.97
2022-12-29T20:26:09.016Z,39.90
2022-12-29T20:28:36.294Z,39.67
2022-12-29T20:31:07.205Z,40.85
2022-12-29T20:33:35.717Z,42.92
2022-12-29T20:36:23.633Z,41.38
2022-12-29T20:38:53.051Z,41.05
2022-12-29T20:41:21.500Z,43.53
2022-12-29T20:43:49.309Z,43.53
2022-12-29T20:46:20.799Z,44.50
2022-12-29T20:48:48.680Z,40.60
2022-12-29T20:51:16.193Z,41.58
2022-12-29T20:53:43.336Z,41.10
2022-12-29T20:56:22.621Z,42.47
2022-12-29T20:59:25.757Z,42.33
2022-12-29T21:01:37.794Z,41.83
2022-12-29T21:04:05.618Z,43.60
2022-12-29T21:06:33.252Z,43.75
2022-12-29T21:09:00.362Z,40.50
2022-12-29T21:11:27.948Z,40.25
2022-12-29T21:13:57.178Z,41.45
2022-12-29T21:16:26.585Z,41.03
2022-12-29T21:18:53.698Z,41.25
2022-12-29T21:21:25.283Z,41.17
2022-12-29T21:23:53.215Z,41.38
2022-12-29T21:26:23.253Z,41.88
2022-12-29T21:28:51.177Z,41.50
2022-12-29T21:31:35.647Z,42.35
2022-12-29T21:34:04.676Z,40.53
2022-12-29T21:36:33.107Z,41.13
2022-12-29T21:39:03.289Z,44.55
2022-12-29T21:41:30.592Z,42.03
2022-12-29T21:44:16.882Z,41.00
2022-12-29T21:46:46.867Z,39.72
2022-12-29T21:49:13.975Z,40.22
2022-12-29T21:51:50.065Z,42.35
2022-12-29T21:54:42.199Z,42.47
2022-12-29T21:57:10.220Z,42.35
2022-12-29T21:59:55.725Z,41.85
2022-12-29T22:02:44.010Z,43.22
2022-12-29T22:05:33.644Z,41.55
2022-12-29T22:08:20.934Z,42.80
2022-12-29T22:11:07.043Z,42.95
2022-12-29T22:13:36.295Z,42.17
2022-12-29T22:16:08.661Z,42.67
2022-12-29T22:18:36.674Z,40.15
2022-12-29T22:21:08.816Z,39.53
2022-12-29T22:23:37.920Z,42.25
2022-12-29T22:26:12.852Z,41.83
2022-12-29T22:28:41.839Z,39.83
2022-12-29T22:31:28.235Z,38.00
2022-12-29T22:33:56.572Z,39.55
2022-12-29T22:36:24.194Z,37.58
2022-12-29T22:38:51.573Z,38.72
2022-12-29T22:41:18.594Z,36.97
2022-12-29T22:43:45.666Z,37.65
2022-12-29T22:46:12.844Z,36.58
2022-12-29T22:48:40.024Z,35.47
2022-12-29T22:51:07.157Z,35.00
2022-12-29T22:53:34.176Z,36.90
2022-12-29T22:56:10.172Z,35.83
2022-12-29T22:58:44.832Z,33.00
2022-12-29T23:01:14.869Z,33.22
2022-12-29T23:03:42.642Z,31.80
2022-12-29T23:06:12.985Z,29.20
2022-12-29T23:08:40.479Z,27.27
2022-12-29T23:11:09.647Z,29.77
2022-12-29T23:13:37.069Z,27.95
2022-12-29T23:16:04.583Z,29.85
2022-12-29T23:18:31.623Z,26.40
2022-12-29T23:20:58.738Z,27.05
2022-12-29T23:23:48.773Z,27.02
2022-12-29T23:26:18.540Z,27.30
2022-12-29T23:28:45.890Z,26.10
2022-12-29T23:31:14.154Z,24.48
2022-12-29T23:33:41.294Z,25.60
2022-12-29T23:36:08.732Z,23.85
2022-12-29T23:38:35.732Z,24.15
2022-12-29T23:41:02.734Z,22.98
2022-12-29T23:43:29.686Z,21.73
2022-12-29T23:45:56.643Z,21.05
2022-12-29T23:48:23.569Z,18.80
2022-12-29T23:50:51.052Z,17.38
2022-12-29T23:53:18.080Z,17.45
2022-12-29T23:55:52.124Z,15.73
2022-12-29T23:58:19.143Z,16.70
